sensor_id;sensor_type;location;lat;lon;timestamp;P1;durP1;ratioP1;P2;durP2;ratioP2
53151;SDS011;39234;53.158;6.322;2023-04-01T00:00:28;13.05;;;9.63;;
53151;SDS011;39234;53.158;6.322;2023-04-01T00:02:54;11.98;;;9.70;;
53151;SDS011;39234;53.158;6.322;2023-04-01T00:05:20;12.65;;;9.30;;
53151;SDS011;39234;53.158;6.322;2023-04-01T00:07:46;11.32;;;9.07;;
53151;SDS011;39234;53.158;6.322;2023-04-01T00:10:12;12.18;;;9.75;;
53151;SDS011;39234;53.158;6.322;2023-04-01T00:12:38;14.45;;;10.25;;
53151;SDS011;39234;53.158;6.322;2023-04-01T00:15:06;11.55;;;8.88;;
53151;SDS011;39234;53.158;6.322;2023-04-01T00:17:33;15.15;;;9.10;;
53151;SDS011;39234;53.158;6.322;2023-04-01T00:19:59;12.68;;;8.90;;
53151;SDS011;39234;53.158;6.322;2023-04-01T00:22:26;12.23;;;9.23;;
53151;SDS011;39234;53.158;6.322;2023-04-01T00:24:52;11.82;;;8.98;;
53151;SDS011;39234;53.158;6.322;2023-04-01T00:27:19;11.20;;;8.90;;
53151;SDS011;39234;53.158;6.322;2023-04-01T00:29:45;12.75;;;8.52;;
53151;SDS011;39234;53.158;6.322;2023-04-01T00:32:12;12.90;;;9.00;;
53151;SDS011;39234;53.158;6.322;2023-04-01T00:34:39;14.77;;;9.25;;
53151;SDS011;39234;53.158;6.322;2023-04-01T00:37:05;11.27;;;8.45;;
53151;SDS011;39234;53.158;6.322;2023-04-01T00:39:32;13.80;;;10.05;;
53151;SDS011;39234;53.158;6.322;2023-04-01T00:41:59;13.73;;;9.63;;
53151;SDS011;39234;53.158;6.322;2023-04-01T00:44:27;12.50;;;9.77;;
53151;SDS011;39234;53.158;6.322;2023-04-01T00:46:55;13.35;;;10.07;;
53151;SDS011;39234;53.158;6.322;2023-04-01T00:49:22;13.68;;;10.27;;
53151;SDS011;39234;53.158;6.322;2023-04-01T00:51:53;15.38;;;9.90;;
53151;SDS011;39234;53.158;6.322;2023-04-01T00:54:21;15.45;;;9.57;;
53151;SDS011;39234;53.158;6.322;2023-04-01T00:56:52;12.95;;;10.38;;
53151;SDS011;39234;53.158;6.322;2023-04-01T00:59:24;11.68;;;9.95;;
53151;SDS011;39234;53.158;6.322;2023-04-01T01:01:53;13.18;;;10.10;;
53151;SDS011;39234;53.158;6.322;2023-04-01T01:04:28;13.07;;;10.13;;
53151;SDS011;39234;53.158;6.322;2023-04-01T01:10:08;12.98;;;9.52;;
53151;SDS011;39234;53.158;6.322;2023-04-01T01:18:02;13.32;;;9.73;;
53151;SDS011;39234;53.158;6.322;2023-04-01T01:31:34;13.00;;;9.02;;
53151;SDS011;39234;53.158;6.322;2023-04-01T01:36:44;12.65;;;9.55;;
53151;SDS011;39234;53.158;6.322;2023-04-01T01:39:12;13.32;;;9.07;;
53151;SDS011;39234;53.158;6.322;2023-04-01T01:41:39;11.27;;;8.82;;
53151;SDS011;39234;53.158;6.322;2023-04-01T01:44:08;13.55;;;9.63;;
53151;SDS011;39234;53.158;6.322;2023-04-01T01:46:36;12.95;;;9.30;;
53151;SDS011;39234;53.158;6.322;2023-04-01T01:49:04;13.52;;;9.63;;
53151;SDS011;39234;53.158;6.322;2023-04-01T01:51:33;16.15;;;9.93;;
53151;SDS011;39234;53.158;6.322;2023-04-01T01:53:59;14.55;;;9.77;;
53151;SDS011;39234;53.158;6.322;2023-04-01T01:56:26;12.77;;;9.75;;
53151;SDS011;39234;53.158;6.322;2023-04-01T01:58:56;16.02;;;9.90;;
53151;SDS011;39234;53.158;6.322;2023-04-01T02:01:27;13.38;;;10.20;;
53151;SDS011;39234;53.158;6.322;2023-04-01T02:03:55;16.25;;;9.90;;
53151;SDS011;39234;53.158;6.322;2023-04-01T02:06:23;12.90;;;10.25;;
53151;SDS011;39234;53.158;6.322;2023-04-01T02:08:55;14.85;;;9.07;;
53151;SDS011;39234;53.158;6.322;2023-04-01T02:11:29;16.27;;;10.05;;
53151;SDS011;39234;53.158;6.322;2023-04-01T02:14:45;14.07;;;9.95;;
53151;SDS011;39234;53.158;6.322;2023-04-01T02:17:05;13.25;;;9.27;;
53151;SDS011;39234;53.158;6.322;2023-04-01T02:19:38;16.85;;;9.95;;
53151;SDS011;39234;53.158;6.322;2023-04-01T02:22:08;12.50;;;9.77;;
53151;SDS011;39234;53.158;6.322;2023-04-01T02:24:36;15.43;;;10.65;;
53151;SDS011;39234;53.158;6.322;2023-04-01T02:27:05;13.50;;;9.10;;
53151;SDS011;39234;53.158;6.322;2023-04-01T02:29:31;12.75;;;9.23;;
53151;SDS011;39234;53.158;6.322;2023-04-01T02:31:57;14.02;;;10.30;;
53151;SDS011;39234;53.158;6.322;2023-04-01T02:34:24;13.63;;;10.35;;
53151;SDS011;39234;53.158;6.322;2023-04-01T02:36:50;17.02;;;10.85;;
53151;SDS011;39234;53.158;6.322;2023-04-01T02:39:16;16.63;;;10.68;;
53151;SDS011;39234;53.158;6.322;2023-04-01T02:41:43;16.83;;;11.02;;
53151;SDS011;39234;53.158;6.322;2023-04-01T02:44:10;16.60;;;11.90;;
53151;SDS011;39234;53.158;6.322;2023-04-01T02:46:37;14.70;;;11.32;;
53151;SDS011;39234;53.158;6.322;2023-04-01T02:49:03;18.17;;;12.38;;
53151;SDS011;39234;53.158;6.322;2023-04-01T02:51:30;18.55;;;12.10;;
53151;SDS011;39234;53.158;6.322;2023-04-01T02:53:56;19.02;;;12.32;;
53151;SDS011;39234;53.158;6.322;2023-04-01T02:56:21;16.02;;;11.82;;
53151;SDS011;39234;53.158;6.322;2023-04-01T02:58:47;16.23;;;12.52;;
53151;SDS011;39234;53.158;6.322;2023-04-01T03:01:13;16.08;;;10.93;;
53151;SDS011;39234;53.158;6.322;2023-04-01T03:03:39;16.92;;;11.13;;
53151;SDS011;39234;53.158;6.322;2023-04-01T03:06:09;15.20;;;11.57;;
53151;SDS011;39234;53.158;6.322;2023-04-01T03:08:37;20.20;;;12.23;;
53151;SDS011;39234;53.158;6.322;2023-04-01T03:11:03;20.23;;;12.90;;
53151;SDS011;39234;53.158;6.322;2023-04-01T03:13:30;18.38;;;11.32;;
53151;SDS011;39234;53.158;6.322;2023-04-01T03:15:56;15.82;;;10.93;;
53151;SDS011;39234;53.158;6.322;2023-04-01T03:18:21;19.45;;;12.50;;
53151;SDS011;39234;53.158;6.322;2023-04-01T03:20:47;16.50;;;10.35;;
53151;SDS011;39234;53.158;6.322;2023-04-01T03:23:13;19.25;;;12.45;;
53151;SDS011;39234;53.158;6.322;2023-04-01T03:25:39;17.63;;;11.82;;
53151;SDS011;39234;53.158;6.322;2023-04-01T03:28:05;19.83;;;11.60;;
53151;SDS011;39234;53.158;6.322;2023-04-01T03:30:30;17.52;;;11.15;;
53151;SDS011;39234;53.158;6.322;2023-04-01T03:32:57;17.17;;;11.30;;
53151;SDS011;39234;53.158;6.322;2023-04-01T03:35:24;21.33;;;12.60;;
53151;SDS011;39234;53.158;6.322;2023-04-01T03:37:51;17.17;;;12.32;;
53151;SDS011;39234;53.158;6.322;2023-04-01T03:40:17;20.05;;;11.70;;
53151;SDS011;39234;53.158;6.322;2023-04-01T03:42:43;24.15;;;13.25;;
53151;SDS011;39234;53.158;6.322;2023-04-01T03:45:09;21.20;;;12.70;;
53151;SDS011;39234;53.158;6.322;2023-04-01T03:47:37;16.75;;;12.50;;
53151;SDS011;39234;53.158;6.322;2023-04-01T03:50:03;18.23;;;12.43;;
53151;SDS011;39234;53.158;6.322;2023-04-01T03:52:30;16.73;;;12.45;;
53151;SDS011;39234;53.158;6.322;2023-04-01T03:54:56;13.82;;;9.25;;
53151;SDS011;39234;53.158;6.322;2023-04-01T03:57:21;15.63;;;11.27;;
53151;SDS011;39234;53.158;6.322;2023-04-01T03:59:47;18.73;;;12.65;;
53151;SDS011;39234;53.158;6.322;2023-04-01T04:02:13;17.48;;;12.15;;
53151;SDS011;39234;53.158;6.322;2023-04-01T04:04:39;17.75;;;12.68;;
53151;SDS011;39234;53.158;6.322;2023-04-01T04:07:06;16.23;;;12.00;;
53151;SDS011;39234;53.158;6.322;2023-04-01T04:09:31;14.95;;;12.27;;
53151;SDS011;39234;53.158;6.322;2023-04-01T04:11:58;16.92;;;12.65;;
53151;SDS011;39234;53.158;6.322;2023-04-01T04:14:25;19.90;;;14.05;;
53151;SDS011;39234;53.158;6.322;2023-04-01T04:16:51;19.50;;;13.60;;
53151;SDS011;39234;53.158;6.322;2023-04-01T04:19:17;19.25;;;14.07;;
53151;SDS011;39234;53.158;6.322;2023-04-01T04:21:42;19.27;;;13.80;;
53151;SDS011;39234;53.158;6.322;2023-04-01T04:24:08;20.65;;;13.05;;
53151;SDS011;39234;53.158;6.322;2023-04-01T04:26:35;20.55;;;13.85;;
53151;SDS011;39234;53.158;6.322;2023-04-01T04:29:00;20.30;;;14.55;;
53151;SDS011;39234;53.158;6.322;2023-04-01T04:31:26;25.52;;;16.30;;
53151;SDS011;39234;53.158;6.322;2023-04-01T04:33:52;24.42;;;15.70;;
53151;SDS011;39234;53.158;6.322;2023-04-01T04:36:19;21.23;;;14.63;;
53151;SDS011;39234;53.158;6.322;2023-04-01T04:38:46;22.45;;;16.30;;
53151;SDS011;39234;53.158;6.322;2023-04-01T04:41:12;26.17;;;16.30;;
53151;SDS011;39234;53.158;6.322;2023-04-01T04:43:40;21.63;;;14.23;;
53151;SDS011;39234;53.158;6.322;2023-04-01T04:46:07;24.98;;;15.30;;
53151;SDS011;39234;53.158;6.322;2023-04-01T04:48:33;27.05;;;17.75;;
53151;SDS011;39234;53.158;6.322;2023-04-01T04:50:59;26.55;;;17.00;;
53151;SDS011;39234;53.158;6.322;2023-04-01T04:53:25;23.38;;;16.40;;
53151;SDS011;39234;53.158;6.322;2023-04-01T04:55:51;25.30;;;15.77;;
53151;SDS011;39234;53.158;6.322;2023-04-01T04:58:17;25.83;;;17.02;;
53151;SDS011;39234;53.158;6.322;2023-04-01T05:00:44;24.33;;;16.38;;
53151;SDS011;39234;53.158;6.322;2023-04-01T05:03:10;28.00;;;16.92;;
53151;SDS011;39234;53.158;6.322;2023-04-01T05:05:37;27.23;;;16.70;;
53151;SDS011;39234;53.158;6.322;2023-04-01T05:08:03;32.20;;;17.80;;
53151;SDS011;39234;53.158;6.322;2023-04-01T05:10:28;25.35;;;16.85;;
53151;SDS011;39234;53.158;6.322;2023-04-01T05:12:55;27.55;;;16.38;;
53151;SDS011;39234;53.158;6.322;2023-04-01T05:15:21;31.20;;;17.58;;
53151;SDS011;39234;53.158;6.322;2023-04-01T05:17:47;19.45;;;13.00;;
53151;SDS011;39234;53.158;6.322;2023-04-01T05:20:13;24.95;;;16.35;;
53151;SDS011;39234;53.158;6.322;2023-04-01T05:22:40;28.20;;;17.08;;
53151;SDS011;39234;53.158;6.322;2023-04-01T05:25:06;21.15;;;14.32;;
53151;SDS011;39234;53.158;6.322;2023-04-01T05:27:32;25.75;;;16.15;;
53151;SDS011;39234;53.158;6.322;2023-04-01T05:29:58;23.13;;;15.10;;
53151;SDS011;39234;53.158;6.322;2023-04-01T05:32:24;26.67;;;16.80;;
53151;SDS011;39234;53.158;6.322;2023-04-01T05:34:50;22.40;;;15.27;;
53151;SDS011;39234;53.158;6.322;2023-04-01T05:37:16;28.80;;;18.75;;
53151;SDS011;39234;53.158;6.322;2023-04-01T05:39:42;24.50;;;15.77;;
53151;SDS011;39234;53.158;6.322;2023-04-01T05:42:08;25.80;;;16.95;;
53151;SDS011;39234;53.158;6.322;2023-04-01T05:44:34;24.50;;;16.35;;
53151;SDS011;39234;53.158;6.322;2023-04-01T05:47:01;27.33;;;18.17;;
53151;SDS011;39234;53.158;6.322;2023-04-01T05:49:28;29.63;;;18.40;;
53151;SDS011;39234;53.158;6.322;2023-04-01T05:51:54;31.65;;;18.60;;
53151;SDS011;39234;53.158;6.322;2023-04-01T05:54:20;39.35;;;20.38;;
53151;SDS011;39234;53.158;6.322;2023-04-01T05:56:46;30.73;;;16.88;;
53151;SDS011;39234;53.158;6.322;2023-04-01T05:59:12;30.40;;;18.38;;
53151;SDS011;39234;53.158;6.322;2023-04-01T06:01:38;39.33;;;18.42;;
53151;SDS011;39234;53.158;6.322;2023-04-01T06:04:04;25.85;;;17.02;;
53151;SDS011;39234;53.158;6.322;2023-04-01T06:06:30;18.50;;;11.35;;
53151;SDS011;39234;53.158;6.322;2023-04-01T06:08:58;25.73;;;15.05;;
53151;SDS011;39234;53.158;6.322;2023-04-01T06:14:39;16.10;;;10.77;;
53151;SDS011;39234;53.158;6.322;2023-04-01T06:28:26;18.35;;;11.18;;
53151;SDS011;39234;53.158;6.322;2023-04-01T06:36:15;19.23;;;11.35;;
53151;SDS011;39234;53.158;6.322;2023-04-01T06:50:26;18.23;;;12.80;;
53151;SDS011;39234;53.158;6.322;2023-04-01T06:55:56;20.95;;;13.27;;
53151;SDS011;39234;53.158;6.322;2023-04-01T06:58:39;16.75;;;11.60;;
53151;SDS011;39234;53.158;6.322;2023-04-01T07:01:32;19.33;;;13.85;;
53151;SDS011;39234;53.158;6.322;2023-04-01T07:04:33;17.85;;;12.45;;
53151;SDS011;39234;53.158;6.322;2023-04-01T07:07:04;22.95;;;13.93;;
53151;SDS011;39234;53.158;6.322;2023-04-01T07:09:39;21.23;;;16.00;;
53151;SDS011;39234;53.158;6.322;2023-04-01T07:14:57;18.63;;;12.50;;
53151;SDS011;39234;53.158;6.322;2023-04-01T07:17:33;21.85;;;17.55;;
53151;SDS011;39234;53.158;6.322;2023-04-01T07:20:14;20.90;;;16.60;;
53151;SDS011;39234;53.158;6.322;2023-04-01T07:22:52;19.52;;;15.43;;
53151;SDS011;39234;53.158;6.322;2023-04-01T07:28:13;19.55;;;15.52;;
53151;SDS011;39234;53.158;6.322;2023-04-01T07:30:57;19.35;;;15.93;;
53151;SDS011;39234;53.158;6.322;2023-04-01T07:33:45;22.15;;;17.00;;
53151;SDS011;39234;53.158;6.322;2023-04-01T07:39:23;24.33;;;20.13;;
53151;SDS011;39234;53.158;6.322;2023-04-01T07:42:30;20.83;;;16.73;;
53151;SDS011;39234;53.158;6.322;2023-04-01T07:45:36;40.05;;;20.42;;
53151;SDS011;39234;53.158;6.322;2023-04-01T07:53:31;22.88;;;19.27;;
53151;SDS011;39234;53.158;6.322;2023-04-01T07:58:57;20.63;;;17.55;;
53151;SDS011;39234;53.158;6.322;2023-04-01T08:22:02;15.98;;;13.32;;
53151;SDS011;39234;53.158;6.322;2023-04-01T08:24:39;15.63;;;13.48;;
53151;SDS011;39234;53.158;6.322;2023-04-01T08:27:26;15.70;;;13.38;;
53151;SDS011;39234;53.158;6.322;2023-04-01T08:30:02;16.25;;;12.70;;
53151;SDS011;39234;53.158;6.322;2023-04-01T08:32:56;20.88;;;16.77;;
53151;SDS011;39234;53.158;6.322;2023-04-01T08:35:41;22.45;;;16.90;;
53151;SDS011;39234;53.158;6.322;2023-04-01T08:38:19;18.90;;;14.93;;
53151;SDS011;39234;53.158;6.322;2023-04-01T08:41:00;16.75;;;14.75;;
53151;SDS011;39234;53.158;6.322;2023-04-01T08:52:18;15.30;;;13.55;;
53151;SDS011;39234;53.158;6.322;2023-04-01T08:54:56;15.38;;;13.02;;
53151;SDS011;39234;53.158;6.322;2023-04-01T09:03:37;11.68;;;9.80;;
53151;SDS011;39234;53.158;6.322;2023-04-01T09:14:47;13.35;;;9.88;;
53151;SDS011;39234;53.158;6.322;2023-04-01T09:29:27;7.97;;;5.43;;
53151;SDS011;39234;53.158;6.322;2023-04-01T09:34:53;8.18;;;5.50;;
53151;SDS011;39234;53.158;6.322;2023-04-01T09:37:31;9.20;;;6.70;;
53151;SDS011;39234;53.158;6.322;2023-04-01T09:42:49;6.03;;;3.55;;
53151;SDS011;39234;53.158;6.322;2023-04-01T09:51:22;10.68;;;4.05;;
53151;SDS011;39234;53.158;6.322;2023-04-01T09:58:00;6.00;;;4.15;;
53151;SDS011;39234;53.158;6.322;2023-04-01T10:00:10;3.72;;;2.28;;
53151;SDS011;39234;53.158;6.322;2023-04-01T10:36:37;6.82;;;3.67;;
53151;SDS011;39234;53.158;6.322;2023-04-01T10:53:30;7.40;;;3.65;;
53151;SDS011;39234;53.158;6.322;2023-04-01T11:07:36;4.80;;;1.67;;
53151;SDS011;39234;53.158;6.322;2023-04-01T11:19:07;3.50;;;2.10;;
53151;SDS011;39234;53.158;6.322;2023-04-01T11:55:15;5.80;;;2.45;;
53151;SDS011;39234;53.158;6.322;2023-04-01T11:58:23;4.10;;;1.98;;
53151;SDS011;39234;53.158;6.322;2023-04-01T12:01:33;3.83;;;1.88;;
53151;SDS011;39234;53.158;6.322;2023-04-01T12:07:15;4.15;;;2.20;;
53151;SDS011;39234;53.158;6.322;2023-04-01T12:09:52;1.88;;;1.10;;
53151;SDS011;39234;53.158;6.322;2023-04-01T12:12:29;2.42;;;1.17;;
53151;SDS011;39234;53.158;6.322;2023-04-01T12:18:09;3.35;;;1.77;;
53151;SDS011;39234;53.158;6.322;2023-04-01T12:56:32;5.30;;;2.13;;
53151;SDS011;39234;53.158;6.322;2023-04-01T13:02:01;6.35;;;1.80;;
53151;SDS011;39234;53.158;6.322;2023-04-01T13:13:20;3.67;;;1.60;;
53151;SDS011;39234;53.158;6.322;2023-04-01T13:21:26;4.70;;;2.22;;
53151;SDS011;39234;53.158;6.322;2023-04-01T13:24:05;3.65;;;1.50;;
53151;SDS011;39234;53.158;6.322;2023-04-01T13:34:59;3.00;;;1.65;;
53151;SDS011;39234;53.158;6.322;2023-04-01T13:40:33;5.05;;;1.90;;
53151;SDS011;39234;53.158;6.322;2023-04-01T13:43:04;2.10;;;1.23;;
53151;SDS011;39234;53.158;6.322;2023-04-01T13:51:18;3.30;;;1.67;;
53151;SDS011;39234;53.158;6.322;2023-04-01T13:54:07;2.42;;;1.30;;
53151;SDS011;39234;53.158;6.322;2023-04-01T14:02:29;5.88;;;1.50;;
53151;SDS011;39234;53.158;6.322;2023-04-01T14:08:03;1.88;;;1.15;;
53151;SDS011;39234;53.158;6.322;2023-04-01T14:16:53;5.28;;;1.75;;
53151;SDS011;39234;53.158;6.322;2023-04-01T14:22:45;3.30;;;1.38;;
53151;SDS011;39234;53.158;6.322;2023-04-01T14:28:40;2.85;;;1.30;;
53151;SDS011;39234;53.158;6.322;2023-04-01T14:31:43;2.38;;;1.40;;
53151;SDS011;39234;53.158;6.322;2023-04-01T14:43:15;2.17;;;1.00;;
53151;SDS011;39234;53.158;6.322;2023-04-01T14:46:03;3.17;;;1.70;;
53151;SDS011;39234;53.158;6.322;2023-04-01T14:48:56;3.00;;;1.20;;
53151;SDS011;39234;53.158;6.322;2023-04-01T14:51:44;3.23;;;1.30;;
53151;SDS011;39234;53.158;6.322;2023-04-01T14:56:37;3.05;;;1.00;;
53151;SDS011;39234;53.158;6.322;2023-04-01T14:59:09;4.68;;;1.35;;
53151;SDS011;39234;53.158;6.322;2023-04-01T15:02:00;1.85;;;1.33;;
53151;SDS011;39234;53.158;6.322;2023-04-01T15:04:46;4.00;;;1.40;;
53151;SDS011;39234;53.158;6.322;2023-04-01T15:07:24;3.97;;;1.48;;
53151;SDS011;39234;53.158;6.322;2023-04-01T15:15:46;1.98;;;1.05;;
53151;SDS011;39234;53.158;6.322;2023-04-01T15:18:40;4.07;;;1.33;;
53151;SDS011;39234;53.158;6.322;2023-04-01T15:21:22;4.10;;;1.58;;
53151;SDS011;39234;53.158;6.322;2023-04-01T15:27:10;7.22;;;1.80;;
53151;SDS011;39234;53.158;6.322;2023-04-01T15:33:07;3.88;;;1.27;;
53151;SDS011;39234;53.158;6.322;2023-04-01T15:38:41;4.28;;;2.00;;
53151;SDS011;39234;53.158;6.322;2023-04-01T15:47:07;5.70;;;2.47;;
53151;SDS011;39234;53.158;6.322;2023-04-01T15:49:57;6.90;;;2.47;;
53151;SDS011;39234;53.158;6.322;2023-04-01T15:59:06;6.80;;;3.05;;
53151;SDS011;39234;53.158;6.322;2023-04-01T16:04:45;7.18;;;3.50;;
53151;SDS011;39234;53.158;6.322;2023-04-01T16:13:33;6.47;;;2.30;;
53151;SDS011;39234;53.158;6.322;2023-04-01T16:36:24;5.55;;;3.00;;
53151;SDS011;39234;53.158;6.322;2023-04-01T16:44:50;7.65;;;3.03;;
53151;SDS011;39234;53.158;6.322;2023-04-01T16:47:45;7.10;;;4.20;;
53151;SDS011;39234;53.158;6.322;2023-04-01T16:50:17;8.98;;;4.13;;
53151;SDS011;39234;53.158;6.322;2023-04-01T16:53:07;8.70;;;3.97;;
53151;SDS011;39234;53.158;6.322;2023-04-01T16:55:44;9.63;;;4.25;;
53151;SDS011;39234;53.158;6.322;2023-04-01T16:58:19;8.63;;;3.83;;
53151;SDS011;39234;53.158;6.322;2023-04-01T17:00:55;5.68;;;2.63;;
53151;SDS011;39234;53.158;6.322;2023-04-01T17:03:49;7.18;;;2.83;;
53151;SDS011;39234;53.158;6.322;2023-04-01T17:12:00;10.65;;;5.05;;
53151;SDS011;39234;53.158;6.322;2023-04-01T17:20:18;9.02;;;4.82;;
53151;SDS011;39234;53.158;6.322;2023-04-01T17:28:17;7.97;;;3.15;;
53151;SDS011;39234;53.158;6.322;2023-04-01T17:31:10;12.15;;;5.03;;
53151;SDS011;39234;53.158;6.322;2023-04-01T17:42:09;9.73;;;5.25;;
53151;SDS011;39234;53.158;6.322;2023-04-01T17:58:55;12.02;;;5.18;;
53151;SDS011;39234;53.158;6.322;2023-04-01T18:21:27;12.23;;;5.20;;
53151;SDS011;39234;53.158;6.322;2023-04-01T18:24:40;9.18;;;4.72;;
53151;SDS011;39234;53.158;6.322;2023-04-01T18:27:17;11.02;;;5.20;;
53151;SDS011;39234;53.158;6.322;2023-04-01T18:30:01;10.90;;;5.15;;
53151;SDS011;39234;53.158;6.322;2023-04-01T18:32:37;7.13;;;3.20;;
53151;SDS011;39234;53.158;6.322;2023-04-01T18:35:24;7.93;;;4.28;;
53151;SDS011;39234;53.158;6.322;2023-04-01T18:38:18;9.35;;;4.43;;
53151;SDS011;39234;53.158;6.322;2023-04-01T18:41:04;9.15;;;3.65;;
53151;SDS011;39234;53.158;6.322;2023-04-01T18:43:40;9.65;;;4.93;;
53151;SDS011;39234;53.158;6.322;2023-04-01T18:46:27;11.32;;;5.15;;
53151;SDS011;39234;53.158;6.322;2023-04-01T18:49:30;12.77;;;5.38;;
53151;SDS011;39234;53.158;6.322;2023-04-01T18:52:02;13.68;;;4.45;;
53151;SDS011;39234;53.158;6.322;2023-04-01T18:54:40;12.30;;;5.18;;
53151;SDS011;39234;53.158;6.322;2023-04-01T18:57:13;9.20;;;4.38;;
53151;SDS011;39234;53.158;6.322;2023-04-01T18:59:42;12.85;;;6.50;;
53151;SDS011;39234;53.158;6.322;2023-04-01T19:10:13;9.82;;;4.63;;
53151;SDS011;39234;53.158;6.322;2023-04-01T19:23:31;8.48;;;4.22;;
53151;SDS011;39234;53.158;6.322;2023-04-01T19:26:17;6.82;;;3.55;;
53151;SDS011;39234;53.158;6.322;2023-04-01T19:29:02;11.05;;;4.95;;
53151;SDS011;39234;53.158;6.322;2023-04-01T19:31:37;9.88;;;4.43;;
53151;SDS011;39234;53.158;6.322;2023-04-01T19:36:56;11.13;;;5.45;;
53151;SDS011;39234;53.158;6.322;2023-04-01T19:42:41;10.13;;;4.80;;
53151;SDS011;39234;53.158;6.322;2023-04-01T19:45:43;13.02;;;4.90;;
53151;SDS011;39234;53.158;6.322;2023-04-01T19:58:41;9.75;;;5.03;;
53151;SDS011;39234;53.158;6.322;2023-04-01T20:01:27;10.40;;;5.00;;
53151;SDS011;39234;53.158;6.322;2023-04-01T20:04:13;12.48;;;4.97;;
53151;SDS011;39234;53.158;6.322;2023-04-01T20:06:51;11.50;;;5.10;;
53151;SDS011;39234;53.158;6.322;2023-04-01T20:09:31;13.60;;;5.68;;
53151;SDS011;39234;53.158;6.322;2023-04-01T20:17:20;5.78;;;3.10;;
53151;SDS011;39234;53.158;6.322;2023-04-01T20:25:13;11.45;;;4.97;;
53151;SDS011;39234;53.158;6.322;2023-04-01T20:27:58;11.50;;;4.90;;
53151;SDS011;39234;53.158;6.322;2023-04-01T20:37:00;11.13;;;5.20;;
53151;SDS011;39234;53.158;6.322;2023-04-01T20:47:42;9.23;;;4.55;;
53151;SDS011;39234;53.158;6.322;2023-04-01T20:50:28;10.77;;;4.05;;
53151;SDS011;39234;53.158;6.322;2023-04-01T20:53:07;9.40;;;3.85;;
53151;SDS011;39234;53.158;6.322;2023-04-01T21:01:20;11.52;;;4.53;;
53151;SDS011;39234;53.158;6.322;2023-04-01T21:15:42;9.35;;;4.00;;
53151;SDS011;39234;53.158;6.322;2023-04-01T21:21:25;9.93;;;4.20;;
53151;SDS011;39234;53.158;6.322;2023-04-01T21:32:16;12.32;;;4.55;;
53151;SDS011;39234;53.158;6.322;2023-04-01T21:35:08;7.57;;;3.28;;
53151;SDS011;39234;53.158;6.322;2023-04-01T21:43:07;9.10;;;4.47;;
53151;SDS011;39234;53.158;6.322;2023-04-01T21:59:26;7.65;;;3.30;;
53151;SDS011;39234;53.158;6.322;2023-04-01T22:02:34;8.88;;;3.55;;
53151;SDS011;39234;53.158;6.322;2023-04-01T22:12:54;9.77;;;3.65;;
53151;SDS011;39234;53.158;6.322;2023-04-01T22:21:16;12.10;;;4.35;;
53151;SDS011;39234;53.158;6.322;2023-04-01T22:29:26;15.02;;;4.13;;
53151;SDS011;39234;53.158;6.322;2023-04-01T22:32:05;13.70;;;6.03;;
53151;SDS011;39234;53.158;6.322;2023-04-01T22:40:25;9.38;;;3.63;;
53151;SDS011;39234;53.158;6.322;2023-04-01T22:43:00;10.43;;;3.90;;
53151;SDS011;39234;53.158;6.322;2023-04-01T22:45:37;6.75;;;3.70;;
53151;SDS011;39234;53.158;6.322;2023-04-01T22:48:15;6.97;;;3.38;;
53151;SDS011;39234;53.158;6.322;2023-04-01T22:56:36;10.35;;;3.33;;
53151;SDS011;39234;53.158;6.322;2023-04-01T22:59:15;13.75;;;2.97;;
53151;SDS011;39234;53.158;6.322;2023-04-01T23:01:54;6.72;;;2.30;;
53151;SDS011;39234;53.158;6.322;2023-04-01T23:04:24;7.95;;;2.78;;
53151;SDS011;39234;53.158;6.322;2023-04-01T23:07:04;6.57;;;2.75;;
53151;SDS011;39234;53.158;6.322;2023-04-01T23:09:49;9.85;;;2.63;;
53151;SDS011;39234;53.158;6.322;2023-04-01T23:12:16;11.18;;;2.92;;
53151;SDS011;39234;53.158;6.322;2023-04-01T23:14:47;8.15;;;2.58;;
53151;SDS011;39234;53.158;6.322;2023-04-01T23:17:19;6.90;;;2.95;;
53151;SDS011;39234;53.158;6.322;2023-04-01T23:35:55;3.88;;;1.58;;
53151;SDS011;39234;53.158;6.322;2023-04-01T23:38:25;6.40;;;2.47;;
53151;SDS011;39234;53.158;6.322;2023-04-01T23:40:52;7.53;;;2.70;;
53151;SDS011;39234;53.158;6.322;2023-04-01T23:43:26;10.57;;;3.90;;
53151;SDS011;39234;53.158;6.322;2023-04-01T23:45:56;6.50;;;2.80;;
53151;SDS011;39234;53.158;6.322;2023-04-01T23:48:29;8.98;;;3.05;;
53151;SDS011;39234;53.158;6.322;2023-04-01T23:50:58;8.77;;;3.03;;
53151;SDS011;39234;53.158;6.322;2023-04-01T23:53:25;6.28;;;1.90;;
53151;SDS011;39234;53.158;6.322;2023-04-01T23:55:54;6.85;;;2.25;;
53151;SDS011;39234;53.158;6.322;2023-04-01T23:58:25;16.38;;;3.92;;
